Irene V — J8PS4 — position and weather

sailwx.info

Track history (hours):
 
Tides and Currents Weather Stations Pressure Air Temp Water Temp Dewpoint Dewpoint Depression Visibility Wind Speed Wind Dir Waves Ship Positions

Irene V

Last reported at 2014-May-10 06:21 UTC. Time now 2014-Jul-23 22:11 UTC.
Position N 19°20' W 095°31'.
Warning: this ship's position is months out of date.

; draft 5.3 m.

Type: Cargo ship. MMSI: 377924000.

Date/timePositionNaut miles runAvg speedWind from/ knotsBaromVisibWave heightAir tempDewpointWater temp
2014-May-10 06:21N 19°20' W 095°31'7 9.1
2014-May-10 05:34N 19°16' W 095°37'9 8.7
2014-May-10 04:34N 19°12' W 095°45'9 9.1
2014-May-10 03:34N 19°12' W 095°55'9 9.2
2014-May-10 02:33N 19°12' W 096°05'3 3.4
2014-May-10 01:33N 19°13' W 096°08'0 0.0
2014-May-10 00:33N 19°13' W 096°08'0 0.0
2014-May-09 23:33N 19°13' W 096°08'0 0.0
2014-May-09 22:33N 19°13' W 096°08'0 0.0
2014-May-09 21:42N 19°13' W 096°08'0 0.0
2014-May-09 20:33N 19°13' W 096°08'0 0.0
2014-May-09 19:33N 19°13' W 096°08'0 0.0
2014-May-09 17:33N 19°13' W 096°08'0 0.0
2014-May-09 16:33N 19°13' W 096°08'0 0.0
2014-May-09 15:33N 19°13' W 096°08'0 0.0
2014-May-09 14:33N 19°13' W 096°08'0 0.0
2014-May-09 13:33N 19°13' W 096°08'0 0.0
2014-May-09 12:33N 19°13' W 096°08'0 0.0
2014-May-09 11:33N 19°13' W 096°08'0 0.0
2014-May-09 10:33N 19°13' W 096°08'0 0.0
2014-May-09 09:33N 19°13' W 096°08'0 0.0
2014-May-09 08:33N 19°13' W 096°08'0 0.0
2014-May-09 07:33N 19°13' W 096°08'0 0.0
2014-May-09 06:33N 19°13' W 096°08'0 0.0
2014-May-09 05:33N 19°13' W 096°08'0 0.0
2014-May-09 04:33N 19°13' W 096°08'0 0.0
2014-May-09 03:33N 19°13' W 096°08'0 0.0
2014-May-09 02:33N 19°13' W 096°08'0 0.0
2014-May-09 01:33N 19°13' W 096°08'0 0.0
2014-May-09 00:33N 19°13' W 096°08'0 0.0
2014-May-08 23:33N 19°13' W 096°08'0 0.0
2014-May-08 22:33N 19°13' W 096°08'0 0.0
2014-May-08 21:33N 19°13' W 096°08'0 0.0
2014-May-08 20:33N 19°13' W 096°08'0 0.0
2014-May-08 19:33N 19°13' W 096°08'0 0.0
2014-May-08 18:33N 19°13' W 096°08'0 0.0
2014-May-08 17:33N 19°13' W 096°08'0 0.0
2014-May-08 16:33N 19°13' W 096°08'0 0.0
2014-May-08 15:33N 19°13' W 096°08'0 0.0
2014-May-08 14:33N 19°13' W 096°08'0 0.0
2014-May-08 13:33N 19°13' W 096°08'0 0.0
2014-May-08 12:33N 19°13' W 096°08'6 6.4
2014-May-08 11:33N 19°12' W 096°02'10 9.7
2014-May-08 10:34N 19°21' W 096°00'9 8.8
2014-May-08 09:33N 19°25' W 095°52'25 8.0
2014-May-08 06:24N 19°37' W 095°29'9 7.9
2014-May-08 05:15N 19°41' W 095°20'6 8.3
2014-May-08 04:33N 19°44' W 095°15'8 7.9
2014-May-08 03:33N 19°48' W 095°07'10 8.0
2014-May-08 02:19N 19°54' W 094°58'6 7.1
2014-May-08 01:29N 19°57' W 094°53'6 6.9
2014-May-08 00:33N 20°00' W 094°47'  
Track history (hours):
 
Tides and Currents Weather Stations Pressure Air Temp Water Temp Dewpoint Dewpoint Depression Visibility Wind Speed Wind Dir Waves Ship Positions

Irene V

Last reported at 2014-May-10 06:21 UTC. Time now 2014-Jul-23 22:11 UTC.
Position N 19°20' W 095°31'.
Warning: this ship's position is months out of date.

; draft 5.3 m.

Type: Cargo ship. MMSI: 377924000.

Date/timePositionNaut miles runAvg speedWind from/ knotsBaromVisibWave heightAir tempDewpointWater temp
2014-May-10 06:21N 19°20' W 095°31'7 9.1
2014-May-10 05:34N 19°16' W 095°37'9 8.7
2014-May-10 04:34N 19°12' W 095°45'9 9.1
2014-May-10 03:34N 19°12' W 095°55'9 9.2
2014-May-10 02:33N 19°12' W 096°05'3 3.4
2014-May-10 01:33N 19°13' W 096°08'0 0.0
2014-May-10 00:33N 19°13' W 096°08'0 0.0
2014-May-09 23:33N 19°13' W 096°08'0 0.0
2014-May-09 22:33N 19°13' W 096°08'0 0.0
2014-May-09 21:42N 19°13' W 096°08'0 0.0
2014-May-09 20:33N 19°13' W 096°08'0 0.0
2014-May-09 19:33N 19°13' W 096°08'0 0.0
2014-May-09 17:33N 19°13' W 096°08'0 0.0
2014-May-09 16:33N 19°13' W 096°08'0 0.0
2014-May-09 15:33N 19°13' W 096°08'0 0.0
2014-May-09 14:33N 19°13' W 096°08'0 0.0
2014-May-09 13:33N 19°13' W 096°08'0 0.0
2014-May-09 12:33N 19°13' W 096°08'0 0.0
2014-May-09 11:33N 19°13' W 096°08'0 0.0
2014-May-09 10:33N 19°13' W 096°08'0 0.0
2014-May-09 09:33N 19°13' W 096°08'0 0.0
2014-May-09 08:33N 19°13' W 096°08'0 0.0
2014-May-09 07:33N 19°13' W 096°08'0 0.0
2014-May-09 06:33N 19°13' W 096°08'0 0.0
2014-May-09 05:33N 19°13' W 096°08'0 0.0
2014-May-09 04:33N 19°13' W 096°08'0 0.0
2014-May-09 03:33N 19°13' W 096°08'0 0.0
2014-May-09 02:33N 19°13' W 096°08'0 0.0
2014-May-09 01:33N 19°13' W 096°08'0 0.0
2014-May-09 00:33N 19°13' W 096°08'0 0.0
2014-May-08 23:33N 19°13' W 096°08'0 0.0
2014-May-08 22:33N 19°13' W 096°08'0 0.0
2014-May-08 21:33N 19°13' W 096°08'0 0.0
2014-May-08 20:33N 19°13' W 096°08'0 0.0
2014-May-08 19:33N 19°13' W 096°08'0 0.0
2014-May-08 18:33N 19°13' W 096°08'0 0.0
2014-May-08 17:33N 19°13' W 096°08'0 0.0
2014-May-08 16:33N 19°13' W 096°08'0 0.0
2014-May-08 15:33N 19°13' W 096°08'0 0.0
2014-May-08 14:33N 19°13' W 096°08'0 0.0
2014-May-08 13:33N 19°13' W 096°08'0 0.0
2014-May-08 12:33N 19°13' W 096°08'6 6.4
2014-May-08 11:33N 19°12' W 096°02'10 9.7
2014-May-08 10:34N 19°21' W 096°00'9 8.8
2014-May-08 09:33N 19°25' W 095°52'25 8.0
2014-May-08 06:24N 19°37' W 095°29'9 7.9
2014-May-08 05:15N 19°41' W 095°20'6 8.3
2014-May-08 04:33N 19°44' W 095°15'8 7.9
2014-May-08 03:33N 19°48' W 095°07'10 8.0
2014-May-08 02:19N 19°54' W 094°58'6 7.1
2014-May-08 01:29N 19°57' W 094°53'6 6.9
2014-May-08 00:33N 20°00' W 094°47'  

Dump ship's entire track history